Time;durP1;ratioP1;P1;durP2;ratioP2;P2;SDS_P1;SDS_P2;PMS_P1;PMS_P2;Temp;Humidity;BMP_temperature;BMP_pressure;BME280_temperature;BME280_humidity;BME280_pressure;Samples;Min_cycle;Max_cycle;Signal;HPM_P1;HPM_P2
2022/01/26 00:06:41;;;;;;;16.30;8.95;;;;;;;;;;5094652;28;20089;-67
2022/01/26 00:09:07;;;;;;;17.17;8.75;;;;;;;;;;5095139;28;20383;-70
2022/01/26 00:11:34;;;;;;;18.63;8.75;;;;;;;;;;5094715;28;20044;-65
2022/01/26 00:14:02;;;;;;;20.52;8.48;;;;;;;;;;5093705;28;20027;-66
2022/01/26 00:16:39;;;;;;;17.77;8.88;;;;;;;;;;5094682;28;20032;-63
2022/01/26 00:19:08;;;;;;;20.23;9.18;;;;;;;;;;5095031;28;20475;-62
2022/01/26 00:21:56;;;;;;;22.13;10.20;;;;;;;;;;5094053;28;20055;-64
2022/01/26 00:29:25;;;;;;;19.38;9.10;;;;;;;;;;5073119;28;20037;-63
2022/01/26 00:40:19;;;;;;;17.13;8.07;;;;;;;;;;5074381;28;20040;-64
2022/01/26 00:42:47;;;;;;;22.05;10.18;;;;;;;;;;5072653;28;20566;-64
2022/01/26 00:45:13;;;;;;;23.50;10.30;;;;;;;;;;5073956;28;20036;-63
2022/01/26 00:47:39;;;;;;;22.70;12.18;;;;;;;;;;5079731;28;20028;-62
2022/01/26 00:50:07;;;;;;;28.40;11.93;;;;;;;;;;5092988;28;20036;-62
2022/01/26 00:52:41;;;;;;;26.75;12.05;;;;;;;;;;5093403;28;20058;-67
2022/01/26 00:55:11;;;;;;;29.25;12.73;;;;;;;;;;5093310;28;20376;-62
2022/01/26 00:57:37;;;;;;;27.15;12.90;;;;;;;;;;5093952;28;20028;-64
2022/01/26 01:00:08;;;;;;;30.52;15.05;;;;;;;;;;5093339;28;20028;-63
2022/01/26 01:02:34;;;;;;;32.10;16.35;;;;;;;;;;5093754;28;20040;-64
2022/01/26 01:05:04;;;;;;;33.80;14.73;;;;;;;;;;5091475;28;20024;-62
2022/01/26 01:07:34;;;;;;;28.27;13.60;;;;;;;;;;5088202;27;20048;-67
2022/01/26 01:10:00;;;;;;;29.35;15.13;;;;;;;;;;5072555;28;20436;-64
2022/01/26 01:12:26;;;;;;;32.13;15.55;;;;;;;;;;5072503;28;20111;-63
2022/01/26 01:14:51;;;;;;;34.47;13.57;;;;;;;;;;5073498;28;20033;-64
2022/01/26 01:17:24;;;;;;;31.92;14.65;;;;;;;;;;5073217;28;20100;-65
2022/01/26 01:20:11;;;;;;;31.08;15.18;;;;;;;;;;5072328;28;20029;-65
2022/01/26 01:27:55;;;;;;;22.50;10.40;;;;;;;;;;5072359;28;20041;-63
2022/01/26 01:30:30;;;;;;;24.20;11.93;;;;;;;;;;5073276;28;20382;-62
2022/01/26 01:33:21;;;;;;;28.80;12.10;;;;;;;;;;5072779;28;20028;-63
2022/01/26 01:35:47;;;;;;;23.73;11.40;;;;;;;;;;5071727;28;20048;-64
2022/01/26 01:38:15;;;;;;;24.73;10.82;;;;;;;;;;5072823;28;20029;-64
2022/01/26 01:40:45;;;;;;;23.52;11.55;;;;;;;;;;5071258;28;20502;-63
2022/01/26 01:43:11;;;;;;;24.92;11.80;;;;;;;;;;5073169;28;20025;-62
2022/01/26 01:45:47;;;;;;;24.92;11.50;;;;;;;;;;5071807;28;20128;-63
2022/01/26 01:48:19;;;;;;;23.52;10.23;;;;;;;;;;5071549;28;20060;-64
2022/01/26 01:50:46;;;;;;;26.60;12.73;;;;;;;;;;5072338;28;20035;-62
2022/01/26 01:53:15;;;;;;;23.80;11.68;;;;;;;;;;5071423;28;20479;-65
2022/01/26 01:55:46;;;;;;;29.88;13.35;;;;;;;;;;5072265;28;20620;-67
2022/01/26 01:58:12;;;;;;;30.85;14.10;;;;;;;;;;5074149;28;20127;-66
2022/01/26 02:00:38;;;;;;;24.88;11.77;;;;;;;;;;5085821;28;20115;-63
2022/01/26 02:03:04;;;;;;;23.75;10.90;;;;;;;;;;5073895;27;20385;-62
2022/01/26 02:05:30;;;;;;;26.08;11.57;;;;;;;;;;5071986;28;20169;-62
2022/01/26 02:07:55;;;;;;;33.70;12.52;;;;;;;;;;5071199;28;20036;-62
2022/01/26 02:10:23;;;;;;;28.23;11.80;;;;;;;;;;5071638;28;20028;-62
2022/01/26 02:12:59;;;;;;;27.73;11.75;;;;;;;;;;5072129;28;20141;-62
2022/01/26 02:15:37;;;;;;;32.72;11.10;;;;;;;;;;5071980;28;20028;-64
2022/01/26 02:18:18;;;;;;;20.00;9.13;;;;;;;;;;5071526;28;20111;-63
2022/01/26 02:21:06;;;;;;;16.75;8.63;;;;;;;;;;5071585;28;20115;-64
2022/01/26 02:54:00;;;;;;;21.25;10.23;;;;;;;;;;5051496;28;20404;-63
2022/01/26 03:04:03;;;;;;;21.23;10.00;;;;;;;;;;5070212;28;20028;-62
2022/01/26 03:06:38;;;;;;;25.30;10.45;;;;;;;;;;5069614;28;20035;-63
2022/01/26 03:09:10;;;;;;;30.95;13.55;;;;;;;;;;5070149;28;20376;-65
2022/01/26 03:11:39;;;;;;;27.10;12.43;;;;;;;;;;5070525;28;20028;-63
2022/01/26 03:14:15;;;;;;;30.13;12.18;;;;;;;;;;5069860;28;20028;-63
2022/01/26 03:16:47;;;;;;;24.90;11.90;;;;;;;;;;5070857;28;20041;-64
2022/01/26 03:20:00;;;;;;;23.45;11.48;;;;;;;;;;5071439;28;20041;-64
2022/01/26 03:35:15;;;;;;;15.45;7.38;;;;;;;;;;5070816;28;20045;-63
2022/01/26 03:37:50;;;;;;;15.02;8.40;;;;;;;;;;5076685;28;20104;-64
2022/01/26 03:40:16;;;;;;;25.20;11.48;;;;;;;;;;5077458;28;20107;-64
2022/01/26 03:42:42;;;;;;;28.52;12.00;;;;;;;;;;5077495;28;20095;-65
2022/01/26 03:45:08;;;;;;;25.42;11.77;;;;;;;;;;5078528;28;20060;-65
2022/01/26 03:47:34;;;;;;;22.05;10.43;;;;;;;;;;5077336;28;20041;-69
2022/01/26 03:50:00;;;;;;;29.42;10.50;;;;;;;;;;5069704;28;20043;-66
2022/01/26 03:52:25;;;;;;;21.45;9.82;;;;;;;;;;5069703;28;20044;-63
2022/01/26 03:54:51;;;;;;;17.77;9.40;;;;;;;;;;5076452;28;20425;-62
2022/01/26 03:57:17;;;;;;;21.33;9.15;;;;;;;;;;5076453;28;20409;-63
2022/01/26 03:59:43;;;;;;;16.77;8.68;;;;;;;;;;5075191;28;20051;-64
2022/01/26 04:02:08;;;;;;;20.52;9.00;;;;;;;;;;5076898;28;20020;-62
2022/01/26 04:04:42;;;;;;;20.95;8.90;;;;;;;;;;5076611;28;20056;-62
2022/01/26 04:07:08;;;;;;;17.77;8.57;;;;;;;;;;5076332;28;20075;-62
2022/01/26 04:09:34;;;;;;;14.02;8.15;;;;;;;;;;5076170;28;20052;-63
2022/01/26 04:12:00;;;;;;;19.75;9.40;;;;;;;;;;5076354;28;20041;-63
2022/01/26 04:14:29;;;;;;;20.20;9.63;;;;;;;;;;5076106;28;20028;-63
2022/01/26 04:16:56;;;;;;;21.13;10.07;;;;;;;;;;5059965;28;20090;-64
2022/01/26 04:19:22;;;;;;;21.02;10.82;;;;;;;;;;5055865;28;20052;-64
2022/01/26 04:27:15;;;;;;;23.75;9.95;;;;;;;;;;5057283;28;20033;-63
2022/01/26 04:29:41;;;;;;;28.67;11.05;;;;;;;;;;5057243;28;20048;-64
2022/01/26 04:32:08;;;;;;;24.15;11.40;;;;;;;;;;5059493;28;20028;-62
2022/01/26 04:34:35;;;;;;;22.83;10.93;;;;;;;;;;5076438;28;20032;-63
2022/01/26 04:37:22;;;;;;;24.95;11.55;;;;;;;;;;5076239;28;20024;-63
2022/01/26 04:40:10;;;;;;;22.38;11.35;;;;;;;;;;5077255;28;20063;-64
2022/01/26 04:45:08;;;;;;;23.63;11.20;;;;;;;;;;5058542;28;20459;-63
2022/01/26 04:47:34;;;;;;;24.20;11.68;;;;;;;;;;5055632;28;20040;-64
2022/01/26 04:50:01;;;;;;;29.35;12.65;;;;;;;;;;5053930;28;20338;-63
2022/01/26 04:52:26;;;;;;;27.80;12.02;;;;;;;;;;5068624;28;20256;-64
2022/01/26 04:54:52;;;;;;;27.08;11.85;;;;;;;;;;5072941;28;20131;-63
2022/01/26 04:57:18;;;;;;;28.80;12.10;;;;;;;;;;5072870;28;20043;-62
2022/01/26 04:59:44;;;;;;;41.92;13.43;;;;;;;;;;5073553;28;20021;-64
2022/01/26 05:02:10;;;;;;;35.55;14.75;;;;;;;;;;5074208;28;20033;-63
2022/01/26 05:04:35;;;;;;;31.05;12.40;;;;;;;;;;5073492;28;20025;-65
2022/01/26 05:07:01;;;;;;;37.80;14.30;;;;;;;;;;5067138;28;20483;-65
2022/01/26 05:09:27;;;;;;;29.13;12.55;;;;;;;;;;5068051;28;20024;-67
2022/01/26 05:11:55;;;;;;;21.95;10.32;;;;;;;;;;5069452;28;20051;-66
2022/01/26 05:14:21;;;;;;;28.02;11.10;;;;;;;;;;5052805;28;20040;-67
2022/01/26 05:16:47;;;;;;;24.60;10.95;;;;;;;;;;5062522;28;20044;-66
2022/01/26 05:19:13;;;;;;;32.80;12.43;;;;;;;;;;5070077;28;20153;-65
2022/01/26 05:21:40;;;;;;;25.15;12.77;;;;;;;;;;5074310;28;20115;-67
2022/01/26 05:24:06;;;;;;;29.13;12.50;;;;;;;;;;5063547;28;20029;-67
2022/01/26 05:26:32;;;;;;;27.30;13.82;;;;;;;;;;5057143;28;20060;-67
2022/01/26 05:28:58;;;;;;;38.33;14.25;;;;;;;;;;5072967;28;20060;-66
2022/01/26 05:31:24;;;;;;;31.80;13.98;;;;;;;;;;5074277;28;20039;-65
2022/01/26 05:33:50;;;;;;;33.47;14.52;;;;;;;;;;5073624;28;20029;-66
2022/01/26 05:36:16;;;;;;;31.80;15.15;;;;;;;;;;5073878;28;20512;-66
2022/01/26 05:38:42;;;;;;;36.50;15.13;;;;;;;;;;5073607;28;20025;-66
2022/01/26 05:41:09;;;;;;;33.03;13.95;;;;;;;;;;5072255;28;20036;-65
2022/01/26 05:43:35;;;;;;;30.38;12.45;;;;;;;;;;5072379;28;20078;-73
2022/01/26 05:46:06;;;;;;;36.58;14.52;;;;;;;;;;5059494;28;20441;-69
2022/01/26 05:48:34;;;;;;;22.77;11.65;;;;;;;;;;5071991;28;20062;-74
2022/01/26 05:51:07;;;;;;;33.05;12.50;;;;;;;;;;5072741;28;20472;-69
2022/01/26 05:53:34;;;;;;;32.72;12.43;;;;;;;;;;5071933;28;20064;-67
2022/01/26 05:56:00;;;;;;;26.73;11.30;;;;;;;;;;5071742;28;20035;-67
2022/01/26 05:58:27;;;;;;;26.08;11.20;;;;;;;;;;5072926;28;20063;-66
2022/01/26 06:00:53;;;;;;;24.30;10.20;;;;;;;;;;5072608;28;20529;-65
2022/01/26 06:03:19;;;;;;;27.73;11.02;;;;;;;;;;5070733;28;20037;-66
2022/01/26 06:05:44;;;;;;;24.67;12.20;;;;;;;;;;5071864;28;20182;-67
2022/01/26 06:08:10;;;;;;;26.60;11.38;;;;;;;;;;5071544;28;20085;-67
2022/01/26 06:10:36;;;;;;;30.50;13.77;;;;;;;;;;5072484;28;20020;-67
2022/01/26 06:13:02;;;;;;;32.65;14.15;;;;;;;;;;5072724;28;20091;-68
2022/01/26 06:15:28;;;;;;;33.05;12.90;;;;;;;;;;5072243;28;20029;-66
2022/01/26 06:17:53;;;;;;;22.35;11.15;;;;;;;;;;5071277;28;20036;-66
2022/01/26 06:20:19;;;;;;;29.83;14.13;;;;;;;;;;5071416;28;20040;-67
2022/01/26 06:22:45;;;;;;;34.30;13.45;;;;;;;;;;5073231;28;20036;-67
2022/01/26 06:25:11;;;;;;;41.08;17.20;;;;;;;;;;5072387;28;20017;-65
2022/01/26 06:27:38;;;;;;;28.77;14.38;;;;;;;;;;5070833;28;20127;-67
2022/01/26 06:30:06;;;;;;;35.88;14.85;;;;;;;;;;5071994;28;20033;-66
2022/01/26 06:32:32;;;;;;;28.27;14.13;;;;;;;;;;5071698;28;20043;-65
2022/01/26 06:34:58;;;;;;;26.85;12.98;;;;;;;;;;5070726;28;20028;-66
2022/01/26 06:37:24;;;;;;;26.63;13.60;;;;;;;;;;5072232;28;20055;-66
2022/01/26 06:39:50;;;;;;;31.23;13.65;;;;;;;;;;5072198;28;20096;-66
2022/01/26 06:42:20;;;;;;;27.80;13.70;;;;;;;;;;5072185;28;20447;-66
2022/01/26 06:49:40;;;;;;;46.22;20.30;;;;;;;;;;5070322;28;20035;-66
2022/01/26 06:52:06;;;;;;;38.22;19.80;;;;;;;;;;5070310;28;20468;-65
2022/01/26 06:54:32;;;;;;;38.70;19.27;;;;;;;;;;5070808;28;20032;-66
2022/01/26 06:56:58;;;;;;;40.83;20.92;;;;;;;;;;5072239;28;20032;-65
2022/01/26 06:59:24;;;;;;;44.65;20.20;;;;;;;;;;5071513;28;20076;-67
2022/01/26 07:01:51;;;;;;;44.78;20.50;;;;;;;;;;5072300;28;20048;-65
2022/01/26 07:04:17;;;;;;;37.92;20.60;;;;;;;;;;5070626;28;20040;-65
2022/01/26 07:06:43;;;;;;;35.22;18.98;;;;;;;;;;5071614;28;20211;-67
2022/01/26 07:09:09;;;;;;;44.40;20.73;;;;;;;;;;5071858;28;20182;-66
2022/01/26 07:11:35;;;;;;;52.03;21.77;;;;;;;;;;5070681;28;20051;-66
2022/01/26 07:14:03;;;;;;;62.47;25.58;;;;;;;;;;5070477;28;20494;-66
2022/01/26 07:21:57;;;;;;;43.75;22.35;;;;;;;;;;5071698;28;20024;-66
2022/01/26 07:24:23;;;;;;;43.13;21.63;;;;;;;;;;5071621;28;20035;-66
2022/01/26 07:26:53;;;;;;;41.20;20.92;;;;;;;;;;5071969;28;20032;-66
2022/01/26 07:29:22;;;;;;;37.58;19.40;;;;;;;;;;5070751;28;20043;-66
2022/01/26 07:31:48;;;;;;;38.13;19.88;;;;;;;;;;5071617;28;20036;-67
2022/01/26 07:34:16;;;;;;;41.10;21.23;;;;;;;;;;5071508;28;20041;-65
2022/01/26 07:36:44;;;;;;;41.92;21.05;;;;;;;;;;5070111;28;20040;-66
2022/01/26 07:39:14;;;;;;;40.92;18.60;;;;;;;;;;5070902;28;20031;-66
2022/01/26 07:41:40;;;;;;;43.05;21.77;;;;;;;;;;5070914;28;20371;-67
2022/01/26 07:44:06;;;;;;;39.67;18.55;;;;;;;;;;5071376;28;20033;-71
2022/01/26 07:46:32;;;;;;;38.47;18.42;;;;;;;;;;5070929;28;20051;-65
2022/01/26 07:48:58;;;;;;;44.75;24.63;;;;;;;;;;5069846;28;20024;-67
2022/01/26 07:51:24;;;;;;;42.20;20.88;;;;;;;;;;5070305;28;20068;-66
2022/01/26 07:53:50;;;;;;;43.33;21.83;;;;;;;;;;5071251;28;20072;-69
2022/01/26 07:56:16;;;;;;;46.88;22.23;;;;;;;;;;5061943;28;20041;-67
2022/01/26 07:58:42;;;;;;;43.95;21.73;;;;;;;;;;5050543;28;20029;-67
2022/01/26 08:01:08;;;;;;;47.35;22.20;;;;;;;;;;5050886;28;20053;-68
2022/01/26 08:03:34;;;;;;;29.38;15.73;;;;;;;;;;5050290;28;20480;-67
2022/01/26 08:06:01;;;;;;;30.33;17.10;;;;;;;;;;5050325;28;20124;-66
2022/01/26 08:08:28;;;;;;;28.73;13.23;;;;;;;;;;5051080;28;20375;-68
2022/01/26 08:10:56;;;;;;;21.00;11.43;;;;;;;;;;5051227;28;20322;-66
2022/01/26 08:13:21;;;;;;;28.40;13.52;;;;;;;;;;5050615;28;20063;-67
2022/01/26 08:15:48;;;;;;;26.30;13.90;;;;;;;;;;5050687;28;20029;-67
2022/01/26 08:18:13;;;;;;;31.10;16.15;;;;;;;;;;5050690;28;20109;-66
2022/01/26 08:20:40;;;;;;;40.63;17.30;;;;;;;;;;5050252;28;20387;-68
2022/01/26 08:23:06;;;;;;;26.52;13.57;;;;;;;;;;5050987;28;20492;-69
2022/01/26 08:25:32;;;;;;;31.20;14.85;;;;;;;;;;5053086;28;20063;-67
2022/01/26 08:28:11;;;;;;;25.33;12.75;;;;;;;;;;5053771;28;20065;-68
2022/01/26 08:30:38;;;;;;;26.15;13.35;;;;;;;;;;5055307;28;20453;-67
2022/01/26 08:33:05;;;;;;;35.00;15.63;;;;;;;;;;5054195;28;20039;-67
2022/01/26 08:35:33;;;;;;;33.95;14.93;;;;;;;;;;5054509;28;20060;-67
2022/01/26 08:37:58;;;;;;;27.52;14.88;;;;;;;;;;5054359;28;20107;-67
2022/01/26 08:40:25;;;;;;;24.90;13.77;;;;;;;;;;5054453;28;20116;-67
2022/01/26 08:42:51;;;;;;;25.65;14.27;;;;;;;;;;5054274;28;20083;-68
2022/01/26 08:45:17;;;;;;;24.25;13.55;;;;;;;;;;5053606;28;20037;-70
2022/01/26 08:47:43;;;;;;;26.52;14.40;;;;;;;;;;5072808;28;20500;-70
2022/01/26 08:50:09;;;;;;;36.38;15.25;;;;;;;;;;5072456;28;20135;-67
2022/01/26 08:52:35;;;;;;;26.10;13.73;;;;;;;;;;5072976;28;20020;-68
2022/01/26 08:55:02;;;;;;;25.23;14.43;;;;;;;;;;5071924;28;20478;-70
2022/01/26 08:57:28;;;;;;;25.45;12.98;;;;;;;;;;5073748;28;20031;-66
2022/01/26 08:59:54;;;;;;;27.33;13.57;;;;;;;;;;5061449;28;20041;-69
2022/01/26 09:02:20;;;;;;;21.60;11.60;;;;;;;;;;5053520;28;20033;-68
2022/01/26 09:04:46;;;;;;;31.45;13.25;;;;;;;;;;5054047;28;20036;-72
2022/01/26 09:07:15;;;;;;;21.65;11.82;;;;;;;;;;5052441;28;20480;-71
2022/01/26 09:09:43;;;;;;;20.95;12.02;;;;;;;;;;5051942;28;20032;-69
2022/01/26 09:12:12;;;;;;;23.20;12.15;;;;;;;;;;5070467;28;20017;-67
2022/01/26 09:14:38;;;;;;;26.17;11.85;;;;;;;;;;5073878;28;20036;-69
2022/01/26 09:17:05;;;;;;;20.75;10.60;;;;;;;;;;5072922;28;20454;-72
2022/01/26 09:19:32;;;;;;;21.60;11.55;;;;;;;;;;5072382;28;20439;-68
2022/01/26 09:22:04;;;;;;;26.58;12.38;;;;;;;;;;5073024;28;20375;-68
2022/01/26 09:24:33;;;;;;;20.77;11.27;;;;;;;;;;5073404;28;20028;-68
2022/01/26 09:26:59;;;;;;;16.92;10.02;;;;;;;;;;5072959;28;20053;-68
2022/01/26 09:29:26;;;;;;;22.58;10.73;;;;;;;;;;5072735;28;20032;-67
2022/01/26 09:31:52;;;;;;;18.80;9.90;;;;;;;;;;5073098;28;20029;-69
2022/01/26 09:34:19;;;;;;;20.80;10.05;;;;;;;;;;5072419;28;20111;-67
2022/01/26 09:36:45;;;;;;;18.63;10.25;;;;;;;;;;5073872;28;20028;-68
2022/01/26 09:39:13;;;;;;;21.55;9.98;;;;;;;;;;5073272;28;20089;-71
2022/01/26 09:41:40;;;;;;;19.45;10.07;;;;;;;;;;5073423;28;20120;-72
2022/01/26 09:44:07;;;;;;;15.15;8.48;;;;;;;;;;5073317;28;20475;-68
2022/01/26 09:46:33;;;;;;;19.45;9.68;;;;;;;;;;5072883;28;20498;-69
2022/01/26 09:49:00;;;;;;;16.80;9.30;;;;;;;;;;5073109;28;20071;-72
2022/01/26 09:51:26;;;;;;;19.13;9.15;;;;;;;;;;5072372;28;20115;-72
2022/01/26 09:54:03;;;;;;;17.42;9.32;;;;;;;;;;5072788;28;20119;-70
2022/01/26 09:56:30;;;;;;;19.63;9.82;;;;;;;;;;5073590;28;20036;-73
2022/01/26 09:58:57;;;;;;;20.13;9.15;;;;;;;;;;5072374;28;20435;-71
2022/01/26 10:01:23;;;;;;;19.38;10.20;;;;;;;;;;5073131;28;20040;-72
2022/01/26 10:03:51;;;;;;;20.23;9.77;;;;;;;;;;5072593;28;20069;-68
2022/01/26 10:06:24;;;;;;;24.45;12.15;;;;;;;;;;5073025;28;20032;-71
2022/01/26 10:09:28;;;;;;;21.92;10.27;;;;;;;;;;5072917;28;20032;-70
2022/01/26 10:17:27;;;;;;;17.17;10.32;;;;;;;;;;5073172;28;20086;-72
2022/01/26 10:20:03;;;;;;;18.95;10.50;;;;;;;;;;5071527;28;20029;-72
2022/01/26 10:22:31;;;;;;;18.02;9.48;;;;;;;;;;5072800;28;20426;-71
2022/01/26 10:25:06;;;;;;;18.67;9.13;;;;;;;;;;5071657;28;20016;-72
2022/01/26 10:27:36;;;;;;;20.63;10.45;;;;;;;;;;5072598;28;20562;-73
2022/01/26 10:30:05;;;;;;;18.10;9.63;;;;;;;;;;5071873;28;20542;-68
2022/01/26 10:32:35;;;;;;;18.52;9.52;;;;;;;;;;5070258;28;20028;-72
2022/01/26 10:35:02;;;;;;;19.98;10.23;;;;;;;;;;5070688;28;20037;-69
2022/01/26 10:37:29;;;;;;;20.55;9.68;;;;;;;;;;5070173;28;20052;-71
2022/01/26 10:40:09;;;;;;;16.67;9.43;;;;;;;;;;5071977;28;20028;-71
2022/01/26 10:42:34;;;;;;;20.17;9.90;;;;;;;;;;5072372;28;20040;-75
2022/01/26 10:45:11;;;;;;;22.55;10.45;;;;;;;;;;5071631;28;20036;-69
2022/01/26 10:47:39;;;;;;;18.58;9.38;;;;;;;;;;5071293;28;20044;-71
2022/01/26 10:53:23;;;;;;;21.55;11.07;;;;;;;;;;5055100;28;20049;-73
2022/01/26 10:55:48;;;;;;;20.85;10.95;;;;;;;;;;5070894;28;20032;-75
2022/01/26 10:58:16;;;;;;;22.80;12.95;;;;;;;;;;5072145;28;20031;-70
2022/01/26 11:00:43;;;;;;;23.33;10.25;;;;;;;;;;5070706;28;20071;-71
2022/01/26 11:03:09;;;;;;;24.35;11.38;;;;;;;;;;5071509;28;20027;-70
2022/01/26 11:05:35;;;;;;;24.35;10.93;;;;;;;;;;5071563;28;20332;-69
2022/01/26 11:08:01;;;;;;;19.95;11.68;;;;;;;;;;5071891;28;20016;-74
2022/01/26 11:10:32;;;;;;;33.25;13.40;;;;;;;;;;5064379;28;20405;-70
2022/01/26 11:12:58;;;;;;;23.60;13.13;;;;;;;;;;5066835;28;20119;-70
2022/01/26 11:15:24;;;;;;;20.63;12.25;;;;;;;;;;5071043;28;20111;-69
2022/01/26 11:17:51;;;;;;;20.88;11.30;;;;;;;;;;5072216;28;20032;-67
2022/01/26 11:20:33;;;;;;;24.45;12.52;;;;;;;;;;5071047;28;20369;-71
2022/01/26 11:23:02;;;;;;;20.83;12.88;;;;;;;;;;5071140;28;20123;-70
2022/01/26 11:25:30;;;;;;;20.92;10.77;;;;;;;;;;5070601;28;20016;-68
2022/01/26 11:27:57;;;;;;;20.75;11.52;;;;;;;;;;5070993;28;20040;-68
2022/01/26 11:30:32;;;;;;;22.65;11.45;;;;;;;;;;5071379;28;20043;-70
2022/01/26 11:33:03;;;;;;;28.85;13.05;;;;;;;;;;5071018;28;20029;-70
2022/01/26 11:35:34;;;;;;;28.65;12.35;;;;;;;;;;5071682;28;20497;-70
2022/01/26 11:47:29;;;;;;;19.13;9.77;;;;;;;;;;5070154;28;20067;-70
2022/01/26 11:50:15;;;;;;;15.45;8.35;;;;;;;;;;5070431;28;20079;-73
2022/01/26 11:52:45;;;;;;;14.88;7.80;;;;;;;;;;5070140;28;20036;-73
2022/01/26 11:55:42;;;;;;;15.02;7.25;;;;;;;;;;5070952;28;20123;-72
2022/01/26 11:58:13;;;;;;;15.38;7.68;;;;;;;;;;5072659;28;20505;-74
2022/01/26 12:00:52;;;;;;;24.48;8.20;;;;;;;;;;5072478;28;20352;-72
2022/01/26 12:03:32;;;;;;;18.30;9.52;;;;;;;;;;5054606;28;20450;-72
2022/01/26 12:05:59;;;;;;;17.25;9.30;;;;;;;;;;5054281;28;20029;-73
2022/01/26 12:08:31;;;;;;;13.27;8.07;;;;;;;;;;5053464;28;20021;-69
2022/01/26 12:10:57;;;;;;;13.43;7.82;;;;;;;;;;5054730;28;20037;-73
2022/01/26 12:13:28;;;;;;;15.48;7.85;;;;;;;;;;5055065;28;20049;-70
2022/01/26 12:15:59;;;;;;;25.83;9.52;;;;;;;;;;5070485;28;20032;-71
2022/01/26 12:18:35;;;;;;;19.15;8.70;;;;;;;;;;5056030;28;20028;-70
2022/01/26 12:32:13;;;;;;;14.55;7.53;;;;;;;;;;5069150;28;20060;-69
2022/01/26 12:37:40;;;;;;;18.88;8.50;;;;;;;;;;5064261;28;20510;-69
2022/01/26 12:45:34;;;;;;;17.42;8.30;;;;;;;;;;5073514;28;20541;-71
2022/01/26 12:48:00;;;;;;;14.45;7.25;;;;;;;;;;5072495;28;20052;-69
2022/01/26 12:50:27;;;;;;;19.30;9.05;;;;;;;;;;5072501;28;20352;-71
2022/01/26 12:52:55;;;;;;;16.52;9.07;;;;;;;;;;5066818;28;20033;-73
2022/01/26 12:55:22;;;;;;;19.65;9.55;;;;;;;;;;5061300;28;20498;-72
2022/01/26 12:57:48;;;;;;;16.08;8.27;;;;;;;;;;5067483;28;20029;-69
2022/01/26 13:00:15;;;;;;;16.20;8.55;;;;;;;;;;5069844;28;20031;-71
2022/01/26 13:02:41;;;;;;;17.15;8.52;;;;;;;;;;5073330;28;20067;-68
2022/01/26 13:05:07;;;;;;;15.02;8.43;;;;;;;;;;5071209;28;20028;-71
2022/01/26 13:07:33;;;;;;;15.55;8.95;;;;;;;;;;5066375;28;20510;-69
2022/01/26 13:09:59;;;;;;;16.83;9.13;;;;;;;;;;5062682;28;20025;-69
2022/01/26 13:12:29;;;;;;;19.98;10.00;;;;;;;;;;5073026;28;20394;-68
2022/01/26 13:15:26;;;;;;;20.85;10.10;;;;;;;;;;5075981;28;20041;-70
2022/01/26 13:18:11;;;;;;;20.35;9.88;;;;;;;;;;5074028;28;20456;-69
2022/01/26 13:26:01;;;;;;;18.70;9.50;;;;;;;;;;5073653;28;20044;-68
2022/01/26 13:31:50;;;;;;;15.50;8.35;;;;;;;;;;5070242;28;20029;-67
2022/01/26 13:37:40;;;;;;;20.75;11.57;;;;;;;;;;5072304;28;20374;-70
2022/01/26 13:45:21;;;;;;;16.90;9.20;;;;;;;;;;5072563;28;20086;-70
2022/01/26 13:52:39;;;;;;;15.13;7.55;;;;;;;;;;5072513;28;20028;-69
2022/01/26 14:00:54;;;;;;;16.80;7.75;;;;;;;;;;5071296;28;20048;-70
2022/01/26 14:03:22;;;;;;;18.23;9.00;;;;;;;;;;5071055;28;20041;-68
2022/01/26 14:05:48;;;;;;;17.05;8.00;;;;;;;;;;5072471;28;20447;-68
2022/01/26 14:08:14;;;;;;;17.20;9.05;;;;;;;;;;5071206;28;20127;-69
2022/01/26 14:10:43;;;;;;;18.65;9.00;;;;;;;;;;5072216;28;20020;-67
2022/01/26 14:13:09;;;;;;;16.55;8.20;;;;;;;;;;5071408;28;20052;-67
2022/01/26 14:15:45;;;;;;;20.42;8.90;;;;;;;;;;5071505;28;20368;-74
2022/01/26 14:19:04;;;;;;;18.50;9.23;;;;;;;;;;5071592;28;20040;-68
2022/01/26 14:22:05;;;;;;;14.73;8.30;;;;;;;;;;5061830;28;20040;-67
2022/01/26 14:26:17;;;;;;;20.13;10.30;;;;;;;;;;5070074;28;20364;-67
2022/01/26 14:28:43;;;;;;;22.17;9.95;;;;;;;;;;5070885;28;20497;-67
2022/01/26 14:36:24;;;;;;;13.07;8.57;;;;;;;;;;5072055;28;20317;-70
2022/01/26 14:53:04;;;;;;;19.30;9.95;;;;;;;;;;5070724;28;20036;-70
2022/01/26 15:30:19;;;;;;;22.77;10.70;;;;;;;;;;5069767;28;20068;-69
2022/01/26 15:48:51;;;;;;;29.80;16.20;;;;;;;;;;5069674;28;20033;-74
2022/01/26 16:04:18;;;;;;;35.92;15.40;;;;;;;;;;5069892;28;20056;-70
2022/01/26 16:05:16;;;;;;;32.25;16.95;;;;;;;;;;5069960;28;20095;-75
2022/01/26 16:07:49;;;;;;;30.77;16.48;;;;;;;;;;5070087;28;20504;-71
2022/01/26 18:15:13;;;;;;;51.35;25.23;;;;;;;;;;5050836;28;20373;-66
2022/01/26 18:33:12;;;;;;;74.35;36.15;;;;;;;;;;5110923;28;20420;-63
2022/01/26 18:49:19;;;;;;;56.13;27.98;;;;;;;;;;5095435;28;20053;-66
2022/01/26 18:51:50;;;;;;;71.13;34.00;;;;;;;;;;5108356;28;20110;-66
2022/01/26 18:54:17;;;;;;;86.20;39.67;;;;;;;;;;5109759;28;20034;-66
2022/01/26 18:56:44;;;;;;;75.10;35.92;;;;;;;;;;5110544;28;20027;-66
2022/01/26 18:59:11;;;;;;;88.20;43.38;;;;;;;;;;5094843;28;20040;-69
2022/01/26 19:01:37;;;;;;;81.25;39.00;;;;;;;;;;5090782;28;20094;-66
2022/01/26 19:04:03;;;;;;;121.18;52.45;;;;;;;;;;5090094;28;20066;-66
2022/01/26 19:06:29;;;;;;;126.60;52.22;;;;;;;;;;5093350;28;20031;-64
2022/01/26 19:08:55;;;;;;;107.07;50.17;;;;;;;;;;5111655;28;20104;-65
2022/01/26 19:11:22;;;;;;;87.70;44.80;;;;;;;;;;5110747;28;20065;-65
2022/01/26 19:13:49;;;;;;;96.07;43.75;;;;;;;;;;5109116;28;20076;-63
2022/01/26 19:21:43;;;;;;;102.43;46.78;;;;;;;;;;5065008;28;20412;-66
2022/01/26 19:26:42;;;;;;;110.28;53.33;;;;;;;;;;5056470;28;20467;-65
2022/01/26 19:51:08;;;;;;;150.13;70.32;;;;;;;;;;5069730;28;20436;-68
2022/01/26 19:53:34;;;;;;;151.82;73.15;;;;;;;;;;5057923;28;20079;-69
2022/01/26 19:55:59;;;;;;;164.93;82.80;;;;;;;;;;5065259;28;20040;-65
2022/01/26 19:58:25;;;;;;;154.32;74.38;;;;;;;;;;5067343;28;20061;-64
2022/01/26 20:00:52;;;;;;;174.23;84.65;;;;;;;;;;5062870;28;20480;-64
2022/01/26 20:03:20;;;;;;;207.02;103.00;;;;;;;;;;5070386;28;20052;-63
2022/01/26 20:05:52;;;;;;;178.18;89.65;;;;;;;;;;5070526;28;20122;-68
2022/01/26 20:08:31;;;;;;;228.93;110.43;;;;;;;;;;5070991;28;20071;-70
2022/01/26 20:11:04;;;;;;;201.75;100.03;;;;;;;;;;5051931;28;20071;-64
2022/01/26 20:13:33;;;;;;;221.97;110.93;;;;;;;;;;5051205;28;20039;-67
2022/01/26 20:16:00;;;;;;;197.55;99.38;;;;;;;;;;5051343;28;20037;-64
2022/01/26 20:18:27;;;;;;;197.15;91.70;;;;;;;;;;5069469;28;20410;-64
2022/01/26 20:20:58;;;;;;;219.93;97.82;;;;;;;;;;5070199;28;20025;-63
2022/01/26 20:23:32;;;;;;;195.70;92.00;;;;;;;;;;5054560;28;20040;-65
2022/01/26 20:26:00;;;;;;;;;;;;;;;;;;5054622;28;20399;-64
2022/01/26 20:28:28;;;;;;;168.65;70.95;;;;;;;;;;5054566;28;19924;-66
2022/01/26 20:30:54;;;;;;;159.05;72.15;;;;;;;;;;5054652;28;20040;-64
2022/01/26 20:33:20;;;;;;;154.23;71.68;;;;;;;;;;5053616;28;20025;-63
2022/01/26 20:35:46;;;;;;;165.88;80.03;;;;;;;;;;5054198;28;20044;-63
2022/01/26 20:38:13;;;;;;;180.98;80.60;;;;;;;;;;5054494;28;20032;-64
2022/01/26 20:40:39;;;;;;;163.48;78.35;;;;;;;;;;5054063;28;20041;-64
2022/01/26 20:43:05;;;;;;;161.52;78.05;;;;;;;;;;5054373;28;20029;-64
2022/01/26 20:45:32;;;;;;;152.45;76.18;;;;;;;;;;5054064;28;20045;-64
2022/01/26 20:48:00;;;;;;;156.88;74.20;;;;;;;;;;5053417;28;20565;-63
2022/01/26 20:50:27;;;;;;;189.80;88.40;;;;;;;;;;5053887;28;20040;-62
2022/01/26 20:52:53;;;;;;;169.30;78.25;;;;;;;;;;5058164;28;20012;-62
2022/01/26 20:55:19;;;;;;;148.48;66.68;;;;;;;;;;5073771;28;20072;-64
2022/01/26 20:57:46;;;;;;;127.38;63.38;;;;;;;;;;5074277;28;20051;-64
2022/01/26 21:00:16;;;;;;;124.90;57.13;;;;;;;;;;5074041;28;20086;-64
2022/01/26 21:02:48;;;;;;;123.90;57.03;;;;;;;;;;5073750;28;20029;-65
2022/01/26 21:05:16;;;;;;;96.13;48.28;;;;;;;;;;5073131;28;20048;-64
2022/01/26 21:07:42;;;;;;;105.38;50.45;;;;;;;;;;5074213;28;20028;-64
2022/01/26 21:10:10;;;;;;;109.47;50.50;;;;;;;;;;5073404;28;20032;-62
2022/01/26 21:12:37;;;;;;;98.70;47.72;;;;;;;;;;5072511;28;20036;-64
2022/01/26 21:15:04;;;;;;;100.57;43.95;;;;;;;;;;5069199;28;20080;-63
2022/01/26 21:17:30;;;;;;;83.97;41.25;;;;;;;;;;5053551;28;20021;-64
2022/01/26 21:19:56;;;;;;;87.88;40.33;;;;;;;;;;5054032;28;20048;-65
2022/01/26 21:22:21;;;;;;;72.05;35.75;;;;;;;;;;5073258;28;20028;-64
2022/01/26 21:24:47;;;;;;;80.47;37.20;;;;;;;;;;5073159;28;20044;-64
2022/01/26 21:27:13;;;;;;;69.28;33.17;;;;;;;;;;5072613;28;20029;-67
2022/01/26 21:29:39;;;;;;;63.45;31.38;;;;;;;;;;5073115;28;20526;-70
2022/01/26 21:32:05;;;;;;;63.55;27.40;;;;;;;;;;5073399;28;20112;-65
2022/01/26 21:34:31;;;;;;;56.03;29.45;;;;;;;;;;5073415;28;20400;-63